Time;durP1;ratioP1;P1;durP2;ratioP2;P2;SDS_P1;SDS_P2;PMS_P1;PMS_P2;Temp;Humidity;BMP_temperature;BMP_pressure;BME280_temperature;BME280_humidity;BME280_pressure;Samples;Min_cycle;Max_cycle;Signal;HPM_P1;HPM_P2
2022/06/11 00:00:48;;;;;;;8.13;3.15;;;;;;;;;;4955693;28;19973;-73
2022/06/11 00:03:15;;;;;;;7.47;2.83;;;;;;;;;;4954933;28;20090;-73
2022/06/11 00:05:41;;;;;;;6.80;3.25;;;;;;;;;;4955644;28;20474;-73
2022/06/11 00:08:08;;;;;;;6.63;2.53;;;;;;;;;;4955817;28;20038;-73
2022/06/11 00:10:34;;;;;;;8.43;2.65;;;;;;;;;;4973133;28;20491;-73
2022/06/11 00:13:00;;;;;;;6.85;2.28;;;;;;;;;;4955418;28;20502;-73
2022/06/11 00:15:26;;;;;;;8.68;2.45;;;;;;;;;;4955868;28;20110;-73
2022/06/11 00:17:52;;;;;;;8.65;2.35;;;;;;;;;;4958346;28;20451;-73
2022/06/11 00:20:19;;;;;;;6.68;2.28;;;;;;;;;;4977121;28;20539;-73
2022/06/11 00:22:45;;;;;;;8.20;2.17;;;;;;;;;;4927250;28;20487;-74
2022/06/11 00:25:11;;;;;;;7.53;2.30;;;;;;;;;;4943212;28;20054;-74
2022/06/11 00:27:37;;;;;;;5.97;2.05;;;;;;;;;;4943246;28;20050;-73
2022/06/11 00:30:05;;;;;;;6.63;1.90;;;;;;;;;;4959837;28;20411;-73
2022/06/11 00:32:31;;;;;;;8.38;2.20;;;;;;;;;;4959485;28;20384;-73
2022/06/11 00:35:01;;;;;;;8.57;2.17;;;;;;;;;;4942580;28;20148;-73
2022/06/11 00:37:27;;;;;;;8.10;2.42;;;;;;;;;;4976776;28;20046;-73
2022/06/11 00:39:53;;;;;;;6.85;2.08;;;;;;;;;;4943204;28;20046;-73
2022/06/11 00:42:23;;;;;;;9.48;2.10;;;;;;;;;;4927528;28;20117;-73
2022/06/11 00:44:49;;;;;;;7.78;2.45;;;;;;;;;;4958891;28;20050;-73
2022/06/11 00:47:18;;;;;;;7.75;2.40;;;;;;;;;;4958829;28;20396;-73
2022/06/11 00:49:52;;;;;;;7.60;2.40;;;;;;;;;;4958864;28;20038;-74
2022/06/11 00:52:30;;;;;;;9.15;3.00;;;;;;;;;;4959419;28;20050;-73
2022/06/11 00:55:11;;;;;;;7.65;2.63;;;;;;;;;;4958768;28;20050;-74
2022/06/11 00:57:42;;;;;;;10.30;2.75;;;;;;;;;;4956518;28;20126;-73
2022/06/11 01:00:15;;;;;;;8.02;2.72;;;;;;;;;;4942822;28;20114;-74
2022/06/11 01:02:42;;;;;;;7.32;2.60;;;;;;;;;;4958180;28;20162;-74
2022/06/11 01:05:08;;;;;;;8.65;2.40;;;;;;;;;;4942796;28;20117;-74
2022/06/11 01:07:41;;;;;;;7.50;2.58;;;;;;;;;;4958689;28;20098;-74
2022/06/11 01:10:07;;;;;;;8.75;2.67;;;;;;;;;;4942924;28;20097;-74
2022/06/11 01:12:41;;;;;;;9.20;2.50;;;;;;;;;;4958405;28;20402;-74
2022/06/11 01:15:25;;;;;;;8.43;2.97;;;;;;;;;;4958629;28;20546;-74
2022/06/11 01:17:57;;;;;;;8.20;2.35;;;;;;;;;;4975438;28;20039;-74
2022/06/11 01:20:30;;;;;;;10.52;3.17;;;;;;;;;;4976057;28;20502;-73
2022/06/11 01:23:14;;;;;;;10.45;2.75;;;;;;;;;;4957836;28;20074;-74
2022/06/11 01:25:43;;;;;;;9.50;2.50;;;;;;;;;;4946057;28;20463;-74
2022/06/11 01:28:21;;;;;;;6.88;2.75;;;;;;;;;;4956813;28;20046;-74
2022/06/11 01:30:50;;;;;;;9.25;3.00;;;;;;;;;;4946102;28;20403;-74
2022/06/11 01:33:31;;;;;;;7.10;2.65;;;;;;;;;;4958018;28;20043;-74
2022/06/11 01:36:00;;;;;;;10.18;3.38;;;;;;;;;;4945953;28;20042;-74
2022/06/11 01:38:32;;;;;;;8.73;2.95;;;;;;;;;;4958079;28;20042;-74
2022/06/11 01:41:07;;;;;;;10.80;3.75;;;;;;;;;;4929490;28;20507;-74
2022/06/11 01:43:36;;;;;;;13.95;4.00;;;;;;;;;;4957932;28;20574;-74
2022/06/11 01:46:04;;;;;;;10.43;4.47;;;;;;;;;;4960719;28;20047;-74
2022/06/11 01:48:30;;;;;;;10.75;4.20;;;;;;;;;;4957353;28;20042;-73
2022/06/11 01:51:07;;;;;;;9.10;5.22;;;;;;;;;;4957038;28;20039;-74
2022/06/11 01:53:33;;;;;;;10.07;5.65;;;;;;;;;;4957839;28;20047;-73
2022/06/11 01:55:59;;;;;;;12.40;4.85;;;;;;;;;;4956967;28;20506;-73
2022/06/11 01:58:28;;;;;;;10.13;5.10;;;;;;;;;;4958186;28;20509;-73
2022/06/11 02:01:17;;;;;;;13.60;6.07;;;;;;;;;;4954865;28;20464;-73
2022/06/11 02:03:43;;;;;;;12.43;5.85;;;;;;;;;;4945958;28;20514;-73
2022/06/11 02:06:13;;;;;;;15.30;6.40;;;;;;;;;;4940010;28;20046;-74
2022/06/11 02:08:39;;;;;;;16.23;5.97;;;;;;;;;;4957580;28;20038;-73
2022/06/11 02:11:23;;;;;;;13.02;6.00;;;;;;;;;;4956582;28;20049;-73
2022/06/11 02:13:54;;;;;;;12.85;5.75;;;;;;;;;;4942042;28;20510;-73
2022/06/11 02:16:22;;;;;;;13.25;5.40;;;;;;;;;;4974597;28;20039;-73
2022/06/11 02:18:49;;;;;;;10.90;4.88;;;;;;;;;;4963367;28;20035;-73
2022/06/11 02:21:17;;;;;;;10.27;5.10;;;;;;;;;;4956573;28;20122;-73
2022/06/11 02:23:49;;;;;;;11.15;5.13;;;;;;;;;;4957115;28;20054;-74
2022/06/11 02:26:18;;;;;;;12.75;4.85;;;;;;;;;;4957068;28;20042;-73
2022/06/11 02:28:45;;;;;;;11.00;4.55;;;;;;;;;;4955657;28;20039;-73
2022/06/11 02:31:14;;;;;;;10.52;4.15;;;;;;;;;;4956457;28;20052;-73
2022/06/11 02:33:41;;;;;;;11.77;3.90;;;;;;;;;;4957538;28;20050;-73
2022/06/11 02:36:10;;;;;;;9.00;4.47;;;;;;;;;;4956754;28;20379;-73
2022/06/11 02:38:37;;;;;;;9.85;3.78;;;;;;;;;;4957135;28;20039;-73
2022/06/11 02:41:05;;;;;;;11.70;3.88;;;;;;;;;;4973654;28;20406;-74
2022/06/11 02:43:31;;;;;;;13.77;3.70;;;;;;;;;;4974300;28;20039;-74
2022/06/11 02:45:57;;;;;;;15.68;4.05;;;;;;;;;;4956312;28;20118;-74
2022/06/11 02:48:23;;;;;;;13.60;3.33;;;;;;;;;;4939000;28;20117;-74
2022/06/11 02:50:50;;;;;;;11.93;3.67;;;;;;;;;;4974345;28;20476;-74
2022/06/11 02:53:16;;;;;;;10.65;3.40;;;;;;;;;;4956272;28;20522;-73
2022/06/11 02:55:43;;;;;;;13.52;3.60;;;;;;;;;;4954955;28;20138;-74
2022/06/11 02:58:10;;;;;;;10.75;3.10;;;;;;;;;;4956391;28;20049;-73
2022/06/11 03:00:39;;;;;;;10.80;3.58;;;;;;;;;;4956575;28;20179;-73
2022/06/11 03:03:07;;;;;;;10.10;3.20;;;;;;;;;;4940580;28;20058;-73
2022/06/11 03:05:34;;;;;;;13.20;3.78;;;;;;;;;;4943179;28;20062;-73
2022/06/11 03:08:01;;;;;;;12.10;3.60;;;;;;;;;;4956056;28;20117;-73
2022/06/11 03:10:27;;;;;;;11.20;3.53;;;;;;;;;;4956641;28;20094;-73
2022/06/11 03:12:54;;;;;;;12.55;4.03;;;;;;;;;;4956534;28;20039;-73
2022/06/11 03:15:21;;;;;;;11.25;3.50;;;;;;;;;;4955806;28;20118;-73
2022/06/11 03:17:48;;;;;;;10.60;3.58;;;;;;;;;;4956580;28;20388;-73
2022/06/11 03:20:15;;;;;;;12.15;3.72;;;;;;;;;;4956443;28;20050;-73
2022/06/11 03:22:41;;;;;;;11.95;4.07;;;;;;;;;;4955931;28;20077;-73
2022/06/11 03:25:08;;;;;;;11.80;4.07;;;;;;;;;;4939687;28;20093;-74
2022/06/11 03:27:34;;;;;;;11.93;4.03;;;;;;;;;;4956359;28;20043;-73
2022/06/11 03:30:01;;;;;;;13.70;4.05;;;;;;;;;;4955967;28;20097;-74
2022/06/11 03:32:27;;;;;;;11.73;3.80;;;;;;;;;;4974019;28;20043;-73
2022/06/11 03:34:53;;;;;;;13.57;4.68;;;;;;;;;;4955495;28;20046;-73
2022/06/11 03:37:20;;;;;;;13.48;4.88;;;;;;;;;;4955476;28;20403;-73
2022/06/11 03:39:46;;;;;;;13.27;5.05;;;;;;;;;;4974033;28;20460;-73
2022/06/11 03:42:13;;;;;;;14.88;5.13;;;;;;;;;;4955667;28;20100;-73
2022/06/11 03:44:40;;;;;;;16.85;5.40;;;;;;;;;;4940345;28;20105;-73
2022/06/11 03:47:06;;;;;;;13.50;4.82;;;;;;;;;;4939869;28;20038;-73
2022/06/11 03:49:32;;;;;;;13.27;4.43;;;;;;;;;;4973164;28;20039;-74
2022/06/11 03:51:58;;;;;;;14.65;5.07;;;;;;;;;;4972634;28;20045;-73
2022/06/11 03:54:24;;;;;;;11.63;4.30;;;;;;;;;;4939856;28;20515;-72
2022/06/11 03:56:51;;;;;;;14.77;4.10;;;;;;;;;;4955835;28;20073;-72
2022/06/11 03:59:17;;;;;;;15.45;4.35;;;;;;;;;;4955424;28;20047;-72
2022/06/11 04:01:44;;;;;;;16.25;3.90;;;;;;;;;;4954215;28;20129;-72
2022/06/11 04:04:12;;;;;;;10.45;4.07;;;;;;;;;;4951109;28;20094;-73
2022/06/11 04:06:40;;;;;;;11.27;3.78;;;;;;;;;;4954736;28;20043;-72
2022/06/11 04:09:08;;;;;;;10.38;4.07;;;;;;;;;;4955538;28;20041;-72
2022/06/11 04:11:34;;;;;;;12.45;4.40;;;;;;;;;;4955343;28;20050;-72
2022/06/11 04:14:00;;;;;;;11.30;4.57;;;;;;;;;;4955900;28;20043;-73
2022/06/11 04:16:32;;;;;;;13.30;4.18;;;;;;;;;;4955012;28;20135;-73
2022/06/11 04:18:59;;;;;;;12.10;4.45;;;;;;;;;;4970441;28;20115;-73
2022/06/11 04:21:26;;;;;;;13.05;4.35;;;;;;;;;;4939525;28;20038;-73
2022/06/11 04:23:53;;;;;;;12.43;4.07;;;;;;;;;;4955272;28;20123;-72
2022/06/11 04:26:22;;;;;;;13.13;3.97;;;;;;;;;;4955442;28;20045;-72
2022/06/11 04:28:48;;;;;;;11.40;4.07;;;;;;;;;;4954681;28;20051;-73
2022/06/11 04:31:15;;;;;;;12.10;3.53;;;;;;;;;;4972451;28;20053;-73
2022/06/11 04:33:42;;;;;;;12.63;3.53;;;;;;;;;;4939815;28;20093;-73
2022/06/11 04:36:08;;;;;;;13.00;3.60;;;;;;;;;;4955600;28;20043;-73
2022/06/11 04:38:34;;;;;;;12.80;3.28;;;;;;;;;;4939454;28;20043;-73
2022/06/11 04:41:01;;;;;;;14.20;3.20;;;;;;;;;;4955895;28;20074;-73
2022/06/11 04:43:27;;;;;;;16.15;3.38;;;;;;;;;;4955305;28;20117;-73
2022/06/11 04:45:53;;;;;;;13.32;3.28;;;;;;;;;;4939659;28;20039;-73
2022/06/11 04:48:19;;;;;;;11.52;2.95;;;;;;;;;;4955025;28;20189;-73
2022/06/11 04:50:45;;;;;;;12.30;2.97;;;;;;;;;;4955182;28;20093;-73
2022/06/11 04:53:11;;;;;;;10.73;2.90;;;;;;;;;;4955257;28;20173;-74
2022/06/11 04:55:38;;;;;;;12.18;3.03;;;;;;;;;;4955135;28;20058;-73
2022/06/11 04:58:04;;;;;;;12.18;3.00;;;;;;;;;;4955631;28;20372;-74
2022/06/11 05:00:31;;;;;;;11.00;2.72;;;;;;;;;;4955223;28;20122;-74
2022/06/11 05:02:57;;;;;;;12.70;2.90;;;;;;;;;;4956391;28;20039;-74
2022/06/11 05:05:24;;;;;;;11.95;3.30;;;;;;;;;;4958363;28;20483;-74
2022/06/11 05:07:50;;;;;;;19.80;3.30;;;;;;;;;;4976046;28;20039;-74
2022/06/11 05:10:17;;;;;;;13.63;2.60;;;;;;;;;;4957897;28;20113;-74
2022/06/11 05:12:44;;;;;;;16.85;3.35;;;;;;;;;;4959150;28;20454;-74
2022/06/11 05:15:10;;;;;;;13.63;3.40;;;;;;;;;;4958784;28;20538;-74
2022/06/11 05:17:36;;;;;;;13.85;3.00;;;;;;;;;;4958341;28;20059;-74
2022/06/11 05:20:03;;;;;;;12.95;2.85;;;;;;;;;;4958675;28;20129;-73
2022/06/11 05:22:29;;;;;;;17.42;3.80;;;;;;;;;;4942474;28;20070;-73
2022/06/11 05:24:55;;;;;;;19.30;3.72;;;;;;;;;;4958529;28;20101;-73
2022/06/11 05:27:23;;;;;;;19.42;3.60;;;;;;;;;;4957501;28;20125;-73
2022/06/11 05:29:54;;;;;;;16.05;3.47;;;;;;;;;;4976024;28;20499;-73
2022/06/11 05:32:22;;;;;;;14.93;3.28;;;;;;;;;;4957554;28;20039;-74
2022/06/11 05:34:49;;;;;;;14.73;3.53;;;;;;;;;;4958509;28;20058;-73
2022/06/11 05:37:15;;;;;;;14.30;3.22;;;;;;;;;;4958403;28;20047;-73
2022/06/11 05:39:42;;;;;;;17.95;3.45;;;;;;;;;;4975138;28;20042;-73
2022/06/11 05:42:08;;;;;;;17.60;3.58;;;;;;;;;;4957570;28;20079;-73
2022/06/11 05:44:34;;;;;;;15.68;3.85;;;;;;;;;;4958064;28;20043;-74
2022/06/11 05:47:01;;;;;;;23.65;4.25;;;;;;;;;;4958383;28;20093;-74
2022/06/11 05:49:29;;;;;;;18.52;3.78;;;;;;;;;;4958060;28;20043;-74
2022/06/11 05:51:57;;;;;;;12.43;3.40;;;;;;;;;;4957742;28;20042;-74
2022/06/11 05:54:25;;;;;;;15.77;3.72;;;;;;;;;;4957774;28;20117;-74
2022/06/11 05:56:51;;;;;;;14.77;3.55;;;;;;;;;;4957429;28;20038;-74
2022/06/11 05:59:26;;;;;;;15.23;3.40;;;;;;;;;;4958317;28;20097;-73
2022/06/11 06:01:54;;;;;;;17.52;3.53;;;;;;;;;;4958071;28;20047;-74
2022/06/11 06:04:20;;;;;;;12.43;3.22;;;;;;;;;;4957249;28;20174;-74
2022/06/11 06:06:46;;;;;;;16.35;3.53;;;;;;;;;;4957975;28;20101;-73
2022/06/11 06:09:12;;;;;;;14.55;3.38;;;;;;;;;;4957630;28;20038;-74
2022/06/11 06:11:38;;;;;;;13.27;3.15;;;;;;;;;;4941317;28;20043;-74
2022/06/11 06:14:05;;;;;;;15.45;3.20;;;;;;;;;;4956662;28;20038;-74
2022/06/11 06:16:31;;;;;;;13.57;3.55;;;;;;;;;;4957061;28;20046;-74
2022/06/11 06:18:58;;;;;;;19.80;4.25;;;;;;;;;;4941547;28;20042;-74
2022/06/11 06:21:26;;;;;;;16.27;3.53;;;;;;;;;;4957918;28;20039;-74
2022/06/11 06:23:52;;;;;;;17.13;3.80;;;;;;;;;;4956899;28;20077;-74
2022/06/11 06:26:18;;;;;;;17.13;3.55;;;;;;;;;;4926119;28;20039;-74
2022/06/11 06:28:44;;;;;;;15.55;3.47;;;;;;;;;;4956313;28;20488;-74
2022/06/11 06:31:11;;;;;;;13.98;3.70;;;;;;;;;;4957855;28;20439;-74
2022/06/11 06:33:38;;;;;;;17.08;4.03;;;;;;;;;;4956925;28;20050;-74
2022/06/11 06:36:05;;;;;;;19.50;4.25;;;;;;;;;;4941247;28;20507;-74
2022/06/11 06:38:31;;;;;;;13.50;3.60;;;;;;;;;;4979013;28;20053;-74
2022/06/11 06:40:57;;;;;;;19.23;4.00;;;;;;;;;;4955875;28;20043;-74
2022/06/11 06:43:24;;;;;;;14.82;3.40;;;;;;;;;;4957251;28;20535;-75
2022/06/11 06:45:50;;;;;;;13.27;2.75;;;;;;;;;;4956194;28;20064;-73
2022/06/11 06:48:17;;;;;;;14.35;3.70;;;;;;;;;;4956952;28;20122;-73
2022/06/11 06:50:43;;;;;;;13.38;3.85;;;;;;;;;;4955314;28;20395;-74
2022/06/11 06:53:09;;;;;;;14.20;3.40;;;;;;;;;;4956590;28;20039;-73
2022/06/11 06:55:35;;;;;;;19.10;3.55;;;;;;;;;;4947617;28;20042;-74
2022/06/11 06:58:01;;;;;;;19.77;4.60;;;;;;;;;;4956583;28;20038;-73
2022/06/11 07:00:27;;;;;;;16.38;3.20;;;;;;;;;;4957248;28;20070;-72
2022/06/11 07:02:54;;;;;;;16.27;3.50;;;;;;;;;;4955243;28;20046;-73
2022/06/11 07:05:21;;;;;;;17.27;3.20;;;;;;;;;;4956585;28;20039;-74
2022/06/11 07:07:48;;;;;;;15.40;3.25;;;;;;;;;;4954972;28;20120;-74
2022/06/11 07:10:15;;;;;;;15.55;3.63;;;;;;;;;;4944680;28;20479;-73
2022/06/11 07:12:41;;;;;;;16.73;3.38;;;;;;;;;;4973068;28;20057;-74
2022/06/11 07:15:07;;;;;;;20.05;3.65;;;;;;;;;;4956754;28;20046;-73
2022/06/11 07:17:37;;;;;;;13.02;3.55;;;;;;;;;;4944006;28;20059;-73
2022/06/11 07:20:08;;;;;;;15.82;3.15;;;;;;;;;;4958653;28;20049;-74
2022/06/11 07:22:40;;;;;;;14.98;3.38;;;;;;;;;;4957244;28;20082;-74
2022/06/11 07:25:07;;;;;;;17.10;3.75;;;;;;;;;;4956388;28;20521;-73
2022/06/11 07:27:35;;;;;;;12.25;3.03;;;;;;;;;;4955430;28;20479;-74
2022/06/11 07:30:08;;;;;;;15.38;3.20;;;;;;;;;;4940335;28;20039;-74
2022/06/11 07:32:35;;;;;;;15.70;3.75;;;;;;;;;;4973038;28;20070;-74
2022/06/11 07:35:11;;;;;;;15.40;3.40;;;;;;;;;;4940214;28;20488;-74
2022/06/11 07:37:37;;;;;;;16.15;4.13;;;;;;;;;;4939763;28;20057;-74
2022/06/11 07:40:04;;;;;;;16.20;3.20;;;;;;;;;;4955634;28;20093;-74
2022/06/11 07:42:30;;;;;;;19.30;4.10;;;;;;;;;;4939840;28;20053;-74
2022/06/11 07:44:56;;;;;;;13.98;3.60;;;;;;;;;;4972822;28;20047;-74
2022/06/11 07:50:08;;;;;;;17.17;4.07;;;;;;;;;;4964726;28;20372;-74
2022/06/11 07:52:34;;;;;;;18.17;3.88;;;;;;;;;;4939755;28;20081;-74
2022/06/11 07:55:00;;;;;;;14.80;3.78;;;;;;;;;;4956133;28;20046;-74
2022/06/11 07:57:27;;;;;;;16.33;3.40;;;;;;;;;;4955620;28;20047;-74
2022/06/11 07:59:53;;;;;;;14.15;3.58;;;;;;;;;;4955423;28;20057;-73
2022/06/11 08:02:19;;;;;;;13.80;2.92;;;;;;;;;;4955450;28;20519;-74
2022/06/11 08:04:45;;;;;;;16.60;3.80;;;;;;;;;;4939326;28;20105;-74
2022/06/11 08:07:11;;;;;;;14.00;3.50;;;;;;;;;;4940163;28;20045;-74
2022/06/11 08:09:37;;;;;;;16.60;3.92;;;;;;;;;;4955474;28;20042;-74
2022/06/11 08:12:03;;;;;;;15.38;2.97;;;;;;;;;;4955738;28;20125;-74
2022/06/11 08:14:29;;;;;;;16.60;3.75;;;;;;;;;;4973065;28;20058;-74
2022/06/11 08:16:55;;;;;;;13.27;3.65;;;;;;;;;;4972397;28;20084;-73
2022/06/11 08:19:21;;;;;;;16.15;3.60;;;;;;;;;;4955550;28;20042;-77
2022/06/11 08:21:48;;;;;;;15.07;2.97;;;;;;;;;;4955503;28;20046;-78
2022/06/11 08:24:14;;;;;;;12.52;2.78;;;;;;;;;;4956188;28;20523;-77
2022/06/11 08:26:40;;;;;;;13.38;2.85;;;;;;;;;;4955716;28;20049;-77
2022/06/11 08:29:06;;;;;;;11.07;2.83;;;;;;;;;;4955463;28;20109;-77
2022/06/11 08:31:32;;;;;;;13.93;3.05;;;;;;;;;;4920585;29;20055;-77
2022/06/11 08:33:58;;;;;;;11.80;2.50;;;;;;;;;;4952781;28;20039;-78
2022/06/11 08:36:24;;;;;;;12.57;2.97;;;;;;;;;;4955700;28;20049;-77
2022/06/11 08:38:50;;;;;;;12.75;3.03;;;;;;;;;;4941546;28;20039;-77
2022/06/11 08:41:21;;;;;;;13.38;3.25;;;;;;;;;;4977712;28;20034;-77
2022/06/11 08:44:08;;;;;;;11.50;2.50;;;;;;;;;;4975800;28;20038;-77
2022/06/11 08:46:35;;;;;;;13.13;2.97;;;;;;;;;;4956061;28;20402;-77
2022/06/11 08:49:04;;;;;;;11.65;3.15;;;;;;;;;;4942827;28;20068;-76
2022/06/11 08:51:36;;;;;;;12.10;2.75;;;;;;;;;;4943197;28;20070;-77
2022/06/11 08:54:06;;;;;;;13.50;2.75;;;;;;;;;;4958349;28;20046;-77
2022/06/11 08:56:39;;;;;;;14.32;3.15;;;;;;;;;;4942972;28;20129;-77
2022/06/11 08:59:15;;;;;;;10.77;2.90;;;;;;;;;;4959010;28;20077;-78
2022/06/11 09:02:01;;;;;;;12.30;2.92;;;;;;;;;;4958943;28;20043;-76
2022/06/11 09:04:42;;;;;;;15.85;2.80;;;;;;;;;;4941650;28;20070;-74
2022/06/11 09:07:20;;;;;;;15.55;3.03;;;;;;;;;;4946526;28;20046;-74
2022/06/11 09:09:46;;;;;;;11.93;2.50;;;;;;;;;;4958785;28;20073;-75
2022/06/11 09:12:39;;;;;;;12.85;2.85;;;;;;;;;;4959087;28;20054;-75
2022/06/11 09:15:12;;;;;;;11.50;2.55;;;;;;;;;;4937724;28;20058;-76
2022/06/11 09:17:41;;;;;;;11.07;2.70;;;;;;;;;;4942943;28;20479;-75
2022/06/11 09:20:19;;;;;;;12.50;3.00;;;;;;;;;;4958289;28;20043;-76
2022/06/11 09:22:51;;;;;;;11.13;2.80;;;;;;;;;;4958726;28;20057;-75
2022/06/11 09:25:23;;;;;;;11.95;3.22;;;;;;;;;;4958095;28;20123;-75
2022/06/11 09:27:52;;;;;;;14.02;2.58;;;;;;;;;;4958211;28;20046;-75
2022/06/11 09:30:40;;;;;;;13.35;2.63;;;;;;;;;;4958066;28;20049;-75
2022/06/11 09:33:13;;;;;;;11.65;2.80;;;;;;;;;;4947734;28;20078;-74
2022/06/11 09:35:46;;;;;;;12.80;2.78;;;;;;;;;;4958103;28;20039;-74
2022/06/11 09:38:31;;;;;;;10.10;2.50;;;;;;;;;;4968835;28;20051;-74
2022/06/11 09:41:09;;;;;;;12.43;3.00;;;;;;;;;;4941619;28;20534;-75
2022/06/11 09:43:41;;;;;;;14.82;2.97;;;;;;;;;;4949671;28;20285;-74
2022/06/11 09:46:13;;;;;;;14.20;2.97;;;;;;;;;;4941217;28;20396;-75
2022/06/11 09:48:42;;;;;;;8.90;2.70;;;;;;;;;;4942804;28;20130;-75
2022/06/11 09:51:15;;;;;;;15.57;3.10;;;;;;;;;;4954433;28;20043;-75
2022/06/11 09:56:34;;;;;;;11.20;2.50;;;;;;;;;;5292090;23;20481;-73
2022/06/11 09:59:04;;;;;;;9.35;2.45;;;;;;;;;;4987009;28;21845;-74
2022/06/11 10:04:34;;;;;;;12.15;2.63;;;;;;;;;;5345270;23;20446;-73
2022/06/11 10:07:02;;;;;;;13.00;2.50;;;;;;;;;;4949188;28;20050;-73
2022/06/11 10:09:40;;;;;;;10.90;2.40;;;;;;;;;;4937968;28;20505;-74
2022/06/11 10:12:07;;;;;;;12.38;2.75;;;;;;;;;;4938471;28;20175;-81
2022/06/11 10:14:33;;;;;;;12.77;2.75;;;;;;;;;;4957254;28;20137;-83
2022/06/11 10:16:59;;;;;;;11.48;2.80;;;;;;;;;;4972674;28;20043;-85
2022/06/11 10:19:25;;;;;;;10.27;2.42;;;;;;;;;;4947841;28;20069;-86
2022/06/11 10:21:59;;;;;;;13.95;2.60;;;;;;;;;;4956734;28;20046;-83
2022/06/11 10:24:26;;;;;;;10.18;2.55;;;;;;;;;;4957075;28;20066;-83
2022/06/11 10:26:54;;;;;;;13.07;2.55;;;;;;;;;;4956940;28;20483;-84
2022/06/11 10:29:26;;;;;;;12.30;2.50;;;;;;;;;;4973630;28;20039;-83
2022/06/11 10:32:11;;;;;;;9.75;2.58;;;;;;;;;;4956791;28;20105;-81
2022/06/11 10:34:39;;;;;;;7.95;2.42;;;;;;;;;;4940367;28;20407;-82
2022/06/11 10:37:13;;;;;;;10.35;2.42;;;;;;;;;;4956117;28;20057;-83
2022/06/11 10:39:42;;;;;;;9.70;2.42;;;;;;;;;;4956294;28;20078;-82
2022/06/11 10:42:11;;;;;;;11.95;3.17;;;;;;;;;;4955757;28;20038;-74
2022/06/11 10:44:46;;;;;;;15.68;3.63;;;;;;;;;;4955817;28;20077;-74
2022/06/11 10:47:12;;;;;;;14.02;2.72;;;;;;;;;;4954886;28;20050;-74
2022/06/11 10:49:38;;;;;;;11.10;2.50;;;;;;;;;;4939702;28;20043;-74
2022/06/11 10:52:10;;;;;;;13.10;3.20;;;;;;;;;;4955220;28;20043;-74
2022/06/11 10:54:40;;;;;;;11.48;2.40;;;;;;;;;;4955628;28;20054;-74
2022/06/11 10:57:11;;;;;;;11.32;2.45;;;;;;;;;;4955422;28;20089;-74
2022/06/11 10:59:44;;;;;;;10.77;2.70;;;;;;;;;;4955346;28;20051;-74
2022/06/11 11:02:28;;;;;;;9.95;2.40;;;;;;;;;;4953849;28;20059;-74
2022/06/11 11:04:58;;;;;;;10.90;2.77;;;;;;;;;;4931417;28;20412;-74
2022/06/11 11:07:24;;;;;;;14.10;2.83;;;;;;;;;;4939673;28;20401;-84
2022/06/11 11:09:56;;;;;;;11.88;2.60;;;;;;;;;;4955959;28;20051;-85
2022/06/11 11:12:25;;;;;;;9.98;2.45;;;;;;;;;;4956647;28;20758;-74
2022/06/11 11:15:02;;;;;;;10.93;2.38;;;;;;;;;;4954186;28;20038;-74
2022/06/11 11:17:30;;;;;;;9.52;2.53;;;;;;;;;;4953435;28;20046;-74
2022/06/11 11:23:00;;;;;;;10.15;2.63;;;;;;;;;;4950452;28;20047;-73
2022/06/11 11:25:32;;;;;;;12.40;2.80;;;;;;;;;;4953792;28;20074;-74
2022/06/11 11:28:00;;;;;;;14.30;3.03;;;;;;;;;;4945655;28;20174;-74
2022/06/11 11:30:35;;;;;;;9.82;2.53;;;;;;;;;;4953696;28;20045;-73
2022/06/11 11:33:33;;;;;;;8.15;2.70;;;;;;;;;;4938433;28;20043;-74
2022/06/11 11:36:02;;;;;;;8.38;2.30;;;;;;;;;;4912337;29;20066;-74
2022/06/11 11:38:28;;;;;;;15.32;2.80;;;;;;;;;;4936784;28;20038;-74
2022/06/11 11:40:58;;;;;;;9.02;2.47;;;;;;;;;;4954633;28;20074;-74
2022/06/11 11:43:25;;;;;;;10.25;2.50;;;;;;;;;;4953909;28;20039;-75
2022/06/11 11:45:59;;;;;;;10.98;2.50;;;;;;;;;;4938017;28;20039;-75
2022/06/11 11:48:27;;;;;;;18.55;2.75;;;;;;;;;;4937491;28;20039;-83
2022/06/11 11:51:02;;;;;;;9.82;2.35;;;;;;;;;;4954371;28;20042;-75
2022/06/11 11:53:30;;;;;;;11.43;2.72;;;;;;;;;;4954205;28;21012;-74
2022/06/11 11:56:01;;;;;;;8.52;2.25;;;;;;;;;;4954099;28;20042;-74
2022/06/11 11:58:32;;;;;;;13.07;2.97;;;;;;;;;;4952531;28;20078;-73
2022/06/11 12:01:05;;;;;;;12.18;2.35;;;;;;;;;;4953543;28;20129;-74
2022/06/11 12:03:43;;;;;;;11.27;2.50;;;;;;;;;;4954824;28;20043;-74
2022/06/11 12:06:11;;;;;;;12.23;2.53;;;;;;;;;;4944041;28;20046;-74
2022/06/11 12:08:42;;;;;;;9.70;2.50;;;;;;;;;;4955190;28;20110;-81
2022/06/11 12:11:19;;;;;;;9.90;2.50;;;;;;;;;;4945675;28;20114;-80
2022/06/11 12:13:47;;;;;;;12.43;2.75;;;;;;;;;;4960091;28;20470;-82
2022/06/11 12:16:18;;;;;;;12.45;2.53;;;;;;;;;;4982041;28;20046;-81
2022/06/11 12:18:48;;;;;;;10.98;2.42;;;;;;;;;;4935766;28;20042;-80
2022/06/11 12:21:20;;;;;;;13.63;2.58;;;;;;;;;;4956120;28;20066;-78
2022/06/11 12:23:49;;;;;;;15.25;2.80;;;;;;;;;;4946911;28;20069;-79
2022/06/11 12:26:24;;;;;;;11.18;2.70;;;;;;;;;;4962339;28;20046;-79
2022/06/11 12:29:14;;;;;;;9.90;2.30;;;;;;;;;;4962449;28;20074;-83
2022/06/11 12:31:41;;;;;;;11.13;2.30;;;;;;;;;;4946826;28;20070;-79
2022/06/11 12:34:27;;;;;;;13.52;2.95;;;;;;;;;;4962007;28;20054;-80
2022/06/11 12:36:55;;;;;;;;;;;;;;;;;;4963263;28;20042;-78
2022/06/11 12:39:21;;;;;;;11.35;2.33;;;;;;;;;;4962157;28;20347;-77
2022/06/11 12:41:57;;;;;;;7.88;2.17;;;;;;;;;;4963076;28;20045;-79
2022/06/11 12:44:39;;;;;;;14.80;2.70;;;;;;;;;;4955711;28;20102;-78
2022/06/11 12:47:05;;;;;;;8.57;2.47;;;;;;;;;;4947077;28;20043;-78
2022/06/11 12:49:34;;;;;;;12.02;2.50;;;;;;;;;;4961551;28;20057;-77
2022/06/11 12:52:05;;;;;;;11.45;2.28;;;;;;;;;;4961615;28;20395;-75
2022/06/11 12:54:31;;;;;;;9.55;2.20;;;;;;;;;;4960923;28;20045;-76
2022/06/11 12:57:03;;;;;;;12.23;2.65;;;;;;;;;;4963696;28;20039;-79
2022/06/11 12:59:48;;;;;;;8.35;2.03;;;;;;;;;;4961893;28;20038;-78
2022/06/11 13:02:14;;;;;;;8.95;2.25;;;;;;;;;;4944676;28;20127;-75
2022/06/11 13:05:08;;;;;;;13.60;2.72;;;;;;;;;;4959684;28;20086;-76
2022/06/11 13:07:55;;;;;;;10.88;2.03;;;;;;;;;;4939301;28;20137;-74
2022/06/11 13:10:30;;;;;;;10.07;2.40;;;;;;;;;;4958131;28;20067;-79
2022/06/11 13:12:59;;;;;;;8.32;2.05;;;;;;;;;;4978099;28;20043;-76
2022/06/11 13:15:28;;;;;;;11.48;2.45;;;;;;;;;;4946740;28;20549;-75
2022/06/11 13:17:56;;;;;;;10.95;2.10;;;;;;;;;;4962556;28;20051;-76
2022/06/11 13:21:00;;;;;;;10.60;2.13;;;;;;;;;;4960733;28;20043;-76
2022/06/11 13:23:38;;;;;;;11.38;2.22;;;;;;;;;;4903867;29;20048;-77
2022/06/11 13:26:14;;;;;;;7.65;2.10;;;;;;;;;;4934510;29;20055;-76
2022/06/11 13:28:49;;;;;;;;;;;;;;;;;;4940265;28;20035;-77
2022/06/11 13:31:45;;;;;;;11.25;2.40;;;;;;;;;;4957794;28;19984;-77
2022/06/11 13:34:26;;;;;;;10.20;2.38;;;;;;;;;;4930904;28;20138;-78
2022/06/11 13:37:01;;;;;;;11.20;2.47;;;;;;;;;;4957257;28;20054;-79
2022/06/11 13:39:27;;;;;;;;;;;;;;;;;;4944315;28;20038;-77
2022/06/11 13:41:53;;;;;;;11.52;2.30;;;;;;;;;;4957119;28;19922;-77
2022/06/11 13:44:47;;;;;;;13.35;2.55;;;;;;;;;;4957003;28;20101;-77
2022/06/11 13:47:32;;;;;;;9.57;2.17;;;;;;;;;;4957024;28;20097;-78
2022/06/11 13:50:02;;;;;;;14.77;2.70;;;;;;;;;;4957390;28;20039;-76
2022/06/11 13:55:22;;;;;;;14.75;2.72;;;;;;;;;;4946332;29;20055;-77
2022/06/11 13:58:07;;;;;;;10.68;2.60;;;;;;;;;;4954210;28;20124;-76
2022/06/11 14:00:38;;;;;;;15.97;3.00;;;;;;;;;;4957168;28;20059;-79
2022/06/11 14:03:22;;;;;;;12.93;2.60;;;;;;;;;;4940756;28;20270;-79
2022/06/11 14:05:49;;;;;;;12.23;2.60;;;;;;;;;;4953355;29;20055;-79
2022/06/11 14:08:26;;;;;;;13.00;2.50;;;;;;;;;;4932439;29;20523;-80
2022/06/11 14:10:53;;;;;;;12.35;2.47;;;;;;;;;;4946924;29;20070;-79
2022/06/11 14:13:39;;;;;;;9.80;2.10;;;;;;;;;;4953169;29;20085;-80
2022/06/11 14:16:41;;;;;;;13.13;2.70;;;;;;;;;;4943684;28;20053;-80
2022/06/11 14:19:13;;;;;;;15.27;3.00;;;;;;;;;;4898533;29;20058;-76
2022/06/11 14:21:39;;;;;;;11.90;2.28;;;;;;;;;;4941394;29;20079;-79
2022/06/11 14:24:06;;;;;;;10.65;2.63;;;;;;;;;;4952610;28;20094;-80
2022/06/11 14:26:59;;;;;;;10.57;2.10;;;;;;;;;;4936820;29;20054;-78
2022/06/11 14:29:26;;;;;;;10.85;2.20;;;;;;;;;;4950645;29;20054;-80
2022/06/11 14:31:58;;;;;;;9.20;2.17;;;;;;;;;;4936842;29;20051;-80
2022/06/11 14:34:26;;;;;;;12.63;2.50;;;;;;;;;;4952972;29;20047;-79
2022/06/11 14:37:11;;;;;;;9.77;2.10;;;;;;;;;;4936662;29;20492;-78
2022/06/11 14:39:39;;;;;;;13.18;2.63;;;;;;;;;;4953260;28;20039;-79
2022/06/11 14:42:11;;;;;;;12.63;2.72;;;;;;;;;;4954359;29;20098;-77
2022/06/11 14:44:37;;;;;;;12.63;2.80;;;;;;;;;;4936526;29;20051;-78
2022/06/11 14:47:03;;;;;;;12.85;2.88;;;;;;;;;;4953520;29;20102;-78
2022/06/11 14:49:29;;;;;;;13.88;3.00;;;;;;;;;;4956587;29;20039;-78
2022/06/11 14:52:05;;;;;;;14.50;2.53;;;;;;;;;;4952548;29;20122;-75
2022/06/11 14:54:34;;;;;;;11.27;2.75;;;;;;;;;;4953441;29;20042;-77
2022/06/11 14:57:21;;;;;;;17.08;3.47;;;;;;;;;;4953158;29;20110;-77
2022/06/11 14:59:51;;;;;;;12.95;2.33;;;;;;;;;;4935341;28;20396;-78
2022/06/11 15:02:36;;;;;;;11.68;3.17;;;;;;;;;;4935755;28;20133;-78
2022/06/11 15:05:02;;;;;;;;;;;;;;;;;;4948914;28;20167;-78